Friday, March 6, 2015, 7:02 PM EST

KFDK, Frederick, Frederick Municipal Airport

Location: Frederick, MD, United States Lat: 39.417
Local Time: 7:02 PM EST ( 0:02 GMT) Lon: -77.374
Time Zone: US/Eastern Elev: 301 ft

Show me the last for .
Show Decoded

2015-03-06 17:50 METAR KFDK 062250Z 00000KT 10SM SKC M04/M18 A3048 =
2015-03-06 16:48 METAR KFDK 062148Z 20005KT 10SM SKC M03/M19 A3048 =
2015-03-06 15:47 METAR KFDK 062047Z 00000KT 10SM SKC M03/M22 A3050 =
2015-03-06 14:54 METAR KFDK 061954Z 00000KT 10SM SKC M02/M19 A3052 =
2015-03-06 13:48 METAR KFDK 061848Z 00000KT 10SM SKC M04/M18 A3054 =
2015-03-06 12:45 METAR KFDK 061745Z VRB04KT 10SM SKC M05/M18 A3059 =
2015-03-06 11:47 METAR KFDK 061647Z 00000KT 10SM SKC M06/M19 A3061 =
2015-03-06 10:47 METAR KFDK 061547Z 00000KT 10SM SKC M07/M19 A3063 =
2015-03-06 09:54 METAR KFDK 061454Z 36005KT 10SM SKC M08/M19 A3065 =
2015-03-06 08:47 METAR KFDK 061347Z 00000KT 10SM SKC M13/M17 A3064 =
2015-03-06 07:47 METAR KFDK 061247Z 00000KT 10SM SKC -16/-18 A3062 =
2015-03-06 06:55 METAR KFDK 061155Z 00000KT 10SM SKC M18/M22 A3061 =
2015-03-06 05:25 METAR KFDK 061025Z AUTO 00000KT 1 3/4SM HZ VV007 M17/M20 A3059 RMK AO2 VIS 1/2V5
                 =
2015-03-06 05:05 METAR KFDK 061005Z AUTO 00000KT 10SM CLR M16/M19 A3057 RMK AO2 =
2015-03-06 04:45 METAR KFDK 060945Z AUTO 00000KT 10SM CLR M16/M19 A3056 RMK AO2 =
2015-03-06 04:25 METAR KFDK 060925Z AUTO 00000KT 10SM CLR M15/M17 A3055 RMK AO2 =
2015-03-06 04:05 METAR KFDK 060905Z AUTO 00000KT 10SM CLR M14/M19 A3053 RMK AO2 =
2015-03-06 03:45 METAR KFDK 060845Z AUTO 35003KT 10SM CLR M12/M16 A3053 RMK AO2 =
2015-03-06 03:25 METAR KFDK 060825Z AUTO 00000KT 10SM CLR M12/M18 A3052 RMK AO2 =
2015-03-06 03:05 METAR KFDK 060805Z AUTO 35006KT 10SM CLR M12/M19 A3052 RMK AO2 =
2015-03-06 02:45 METAR KFDK 060745Z AUTO 35006KT 10SM CLR M10/M18 A3052 RMK AO2 =
2015-03-06 02:25 METAR KFDK 060725Z AUTO 35005KT 10SM CLR M10/M18 A3053 RMK AO2 =
2015-03-06 02:05 METAR KFDK 060705Z AUTO 35003KT 10SM CLR M09/M18 A3053 RMK AO2 =
2015-03-06 01:25 METAR KFDK 060625Z AUTO 35003KT 10SM CLR M09/M17 A3051 RMK AO2 =
2015-03-06 01:05 METAR KFDK 060605Z AUTO 35004KT 10SM CLR M08/M18 A3050 RMK AO2 =
2015-03-06 00:45 METAR KFDK 060545Z AUTO 35006KT 10SM CLR M08/M17 A3049 RMK AO2 =
2015-03-06 00:25 METAR KFDK 060525Z AUTO 35007KT 10SM CLR M08/M17 A3049 RMK AO2 =
2015-03-06 00:05 METAR KFDK 060505Z AUTO 35011KT 10SM CLR M07/M17 A3050 RMK AO2 =
2015-03-05 23:45 METAR KFDK 060445Z AUTO 35008KT 10SM CLR M07/M16 A3049 RMK AO2 =
2015-03-05 23:25 METAR KFDK 060425Z AUTO 35008KT 10SM CLR M07/M16 A3049 RMK AO2 =
2015-03-05 23:05 METAR KFDK 060405Z AUTO 35007KT 10SM CLR M06/M16 A3048 RMK AO2 =
2015-03-05 22:45 METAR KFDK 060345Z AUTO 35007KT 10SM CLR M06/M16 A3048 RMK AO2 =
2015-03-05 22:25 METAR KFDK 060325Z AUTO 35009KT 10SM CLR M06/M16 A3048 RMK AO2 =
2015-03-05 22:05 METAR KFDK 060305Z AUTO 35009KT 10SM SCT120 M05/M15 A3047 RMK AO2 =
2015-03-05 21:45 METAR KFDK 060245Z AUTO 35007KT 10SM SCT120 M04/M14 A3045 RMK AO2 =
2015-03-05 21:25 METAR KFDK 060225Z AUTO 35007KT 10SM BKN120 M04/M13 A3045 RMK AO2 =
2015-03-05 21:05 METAR KFDK 060205Z AUTO 35008KT 10SM BKN120 M04/M12 A3043 RMK AO2 =
2015-03-05 20:25 METAR KFDK 060125Z AUTO 35006KT 10SM OVC100 M04/M12 A3041 RMK AO2 =
2015-03-05 20:05 METAR KFDK 060105Z AUTO 35004KT 10SM OVC100 M04/M11 A3039 RMK AO2 =
2015-03-05 19:45 METAR KFDK 060045Z AUTO 35006KT 10SM SCT070 BKN080 OVC100 M04/M10 A3039 RMK AO2
                 =

Support USWX by starting your Amazon purchase here.